createdAt,value
2017-11-04T00:00:08.821Z,33.4
2017-11-04T00:01:08.013Z,33.4
2017-11-04T00:02:09.214Z,33.4
2017-11-04T00:03:07.899Z,33.4
2017-11-04T00:04:08.208Z,33.4
2017-11-04T00:05:08.047Z,33.4
2017-11-04T00:06:08.325Z,33.4
2017-11-04T00:07:09.467Z,33.4
2017-11-04T00:08:09.522Z,33.4
2017-11-04T00:09:08.550Z,33.4
2017-11-04T00:10:08.434Z,33.4
2017-11-04T00:11:08.414Z,33.3
2017-11-04T00:12:09.560Z,33.3
2017-11-04T00:13:09.623Z,33.3
2017-11-04T00:14:08.598Z,33.4
2017-11-04T00:15:08.794Z,33.3
2017-11-04T00:16:08.697Z,33.3
2017-11-04T00:17:09.832Z,33.3
2017-11-04T00:18:09.062Z,33.3
2017-11-04T00:19:09.041Z,33.3
2017-11-04T00:20:09.889Z,33.3
2017-11-04T00:21:08.882Z,33.3
2017-11-04T00:22:10.279Z,33.3
2017-11-04T00:23:09.276Z,33.3
2017-11-04T00:24:10.235Z,33.3
2017-11-04T00:25:09.426Z,33.4
2017-11-04T00:26:09.468Z,33.3
2017-11-04T00:27:10.385Z,33.3
2017-11-04T00:28:10.700Z,33.3
2017-11-04T00:29:10.760Z,33.3
2017-11-04T00:30:10.867Z,33.3
2017-11-04T00:31:10.230Z,33.3
2017-11-04T00:32:09.685Z,33.3
2017-11-04T00:33:09.664Z,33.3
2017-11-04T00:34:11.029Z,33.3
2017-11-04T00:35:09.823Z,33.3
2017-11-04T00:36:09.867Z,33.3
2017-11-04T00:37:10.974Z,33.3
2017-11-04T00:38:10.159Z,33.3
2017-11-04T00:39:10.230Z,33.3
2017-11-04T00:40:10.351Z,33.3
2017-11-04T00:41:10.127Z,33.3
2017-11-04T00:42:10.382Z,33.3
2017-11-04T00:43:10.443Z,33.3
2017-11-04T00:44:10.261Z,33.3
2017-11-04T00:45:11.610Z,33.3
2017-11-04T00:46:10.335Z,33.3
2017-11-04T00:47:11.473Z,33.3
2017-11-04T00:48:11.767Z,33.3
2017-11-04T00:49:10.557Z,33.3
2017-11-04T00:50:11.886Z,33.3
2017-11-04T00:51:11.907Z,33.3
2017-11-04T00:52:10.686Z,33.3
2017-11-04T00:53:11.791Z,33.3
2017-11-04T00:54:10.987Z,33.3
2017-11-04T00:55:12.120Z,33.3
2017-11-04T00:56:12.176Z,33.3
2017-11-04T00:57:12.023Z,33.3
2017-11-04T00:58:10.998Z,33.3
2017-11-04T00:59:12.253Z,33.3
2017-11-04T01:00:11.006Z,33.3
2017-11-04T01:01:12.294Z,33.3
2017-11-04T01:02:11.307Z,33.3
2017-11-04T01:03:11.327Z,33.3
2017-11-04T01:04:12.416Z,33.3
2017-11-04T01:05:12.247Z,33.3
2017-11-04T01:06:12.542Z,33.3
2017-11-04T01:07:11.473Z,33.3
2017-11-04T01:08:12.475Z,33.3
2017-11-04T01:09:12.589Z,33.3
2017-11-04T01:10:12.567Z,33.3
2017-11-04T01:11:12.798Z,33.3
2017-11-04T01:12:11.562Z,33.3
2017-11-04T01:13:11.736Z,33.3
2017-11-04T01:14:11.599Z,33.3
2017-11-04T01:15:12.771Z,33.3
2017-11-04T01:16:11.920Z,33.3
2017-11-04T01:17:13.103Z,33.3
2017-11-04T01:18:13.161Z,33.3
2017-11-04T01:19:13.022Z,33.3
2017-11-04T01:20:11.971Z,33.3
2017-11-04T01:21:12.033Z,33.3
2017-11-04T01:22:13.416Z,33.2
2017-11-04T01:23:13.445Z,33.3
2017-11-04T01:24:13.286Z,33.2
2017-11-04T01:25:12.337Z,33.3
2017-11-04T01:26:13.479Z,33.3
2017-11-04T01:27:12.707Z,33.3
2017-11-04T01:28:12.526Z,33.3
2017-11-04T01:29:13.888Z,33.3
2017-11-04T01:30:12.770Z,33.3
2017-11-04T01:31:13.752Z,33.3
2017-11-04T01:32:12.900Z,33.3
2017-11-04T01:33:14.032Z,33.3
2017-11-04T01:34:12.744Z,33.3
2017-11-04T01:35:13.021Z,33.3
2017-11-04T01:36:13.088Z,33.2
2017-11-04T01:37:14.282Z,33.2
2017-11-04T01:38:13.205Z,33.2
2017-11-04T01:39:14.401Z,33.3
2017-11-04T01:40:13.093Z,33.3
2017-11-04T01:41:14.483Z,33.3
2017-11-04T01:42:14.597Z,33.3
2017-11-04T01:43:13.376Z,33.3
2017-11-04T01:44:13.686Z,33.3
2017-11-04T01:45:13.665Z,33.3
2017-11-04T01:46:14.794Z,33.3
2017-11-04T01:47:13.716Z,33.3
2017-11-04T01:48:14.683Z,33.3
2017-11-04T01:49:13.697Z,33.3
2017-11-04T01:50:15.013Z,33.3
2017-11-04T01:51:15.102Z,33.3
2017-11-04T01:52:13.823Z,33.3
2017-11-04T01:53:13.909Z,33.3
2017-11-04T01:54:15.283Z,33.3
2017-11-04T01:55:14.242Z,33.3
2017-11-04T01:56:14.147Z,33.2
2017-11-04T01:57:15.539Z,33.3
2017-11-04T01:58:15.531Z,33.3
2017-11-04T01:59:15.393Z,33.3
2017-11-04T02:00:16.487Z,33.3
2017-11-04T02:01:14.394Z,33.3
2017-11-04T02:02:14.675Z,33.3
2017-11-04T02:03:14.493Z,33.3
2017-11-04T02:04:15.588Z,33.3
2017-11-04T02:05:14.801Z,33.3
2017-11-04T02:06:14.696Z,33.3
2017-11-04T02:07:16.081Z,33.3
2017-11-04T02:08:14.902Z,33.3
2017-11-04T02:09:16.002Z,33.3
2017-11-04T02:10:14.950Z,33.3
2017-11-04T02:11:14.981Z,33.3
2017-11-04T02:12:16.379Z,33.2
2017-11-04T02:13:15.173Z,33.2
2017-11-04T02:14:16.470Z,33.3
2017-11-04T02:15:15.215Z,33.3
2017-11-04T02:16:15.285Z,33.3
2017-11-04T02:17:15.581Z,33.2
2017-11-04T02:18:15.424Z,33.3
2017-11-04T02:19:15.737Z,33.3
2017-11-04T02:20:16.615Z,33.3
2017-11-04T02:21:16.636Z,33.3
2017-11-04T02:22:16.645Z,33.3
2017-11-04T02:23:16.743Z,33.3
2017-11-04T02:24:15.936Z,33.3
2017-11-04T02:25:16.028Z,33.3
2017-11-04T02:26:16.947Z,33.3
2017-11-04T02:27:17.014Z,33.3
2017-11-04T02:28:16.190Z,33.3
2017-11-04T02:29:17.142Z,33.3
2017-11-04T02:30:17.355Z,33.3
2017-11-04T02:31:17.454Z,33.3
2017-11-04T02:32:17.458Z,33.3
2017-11-04T02:33:16.184Z,33.3
2017-11-04T02:34:16.411Z,33.3
2017-11-04T02:35:16.309Z,33.3
2017-11-04T02:36:16.364Z,33.3
2017-11-04T02:37:16.414Z,33.3
2017-11-04T02:38:16.697Z,33.3
2017-11-04T02:39:17.884Z,33.3
2017-11-04T02:40:17.903Z,33.3
2017-11-04T02:41:16.674Z,33.3
2017-11-04T02:42:16.712Z,33.2
2017-11-04T02:43:17.771Z,33.3
2017-11-04T02:44:17.801Z,33.2
2017-11-04T02:45:17.877Z,33.2
2017-11-04T02:46:17.041Z,33.2
2017-11-04T02:47:17.959Z,33.2
2017-11-04T02:48:18.171Z,33.2
2017-11-04T02:49:17.180Z,33.2
2017-11-04T02:50:18.036Z,33.2
2017-11-04T02:51:17.052Z,33.2
2017-11-04T02:52:17.305Z,33.2
2017-11-04T02:53:18.265Z,33.2
2017-11-04T02:54:18.466Z,33.2
2017-11-04T02:55:17.238Z,33.2
2017-11-04T02:56:17.443Z,33.2
2017-11-04T02:57:18.543Z,33.2
2017-11-04T02:58:17.295Z,33.2
2017-11-04T02:59:18.671Z,33.2
2017-11-04T03:00:17.670Z,33.3
2017-11-04T03:01:17.483Z,33.2
2017-11-04T03:02:17.813Z,33.2
2017-11-04T03:03:17.590Z,33.2
2017-11-04T03:04:17.594Z,33.2
2017-11-04T03:05:17.680Z,33.3
2017-11-04T03:06:17.979Z,33.3
2017-11-04T03:07:18.013Z,33.3
2017-11-04T03:08:18.116Z,33.2
2017-11-04T03:09:18.194Z,33.2
2017-11-04T03:10:18.284Z,33.2
2017-11-04T03:11:18.122Z,33.2
2017-11-04T03:12:18.370Z,33.2
2017-11-04T03:13:18.413Z,33.2
2017-11-04T03:14:19.585Z,33.2
2017-11-04T03:15:18.346Z,33.2
2017-11-04T03:16:19.506Z,33.2
2017-11-04T03:17:19.697Z,33.2
2017-11-04T03:18:18.697Z,33.2
2017-11-04T03:19:18.466Z,33.2
2017-11-04T03:20:19.775Z,33.2
2017-11-04T03:21:18.778Z,33.2
2017-11-04T03:22:19.676Z,33.2
2017-11-04T03:23:19.954Z,33.2
2017-11-04T03:24:18.918Z,33.2
2017-11-04T03:25:20.065Z,33.2
2017-11-04T03:26:19.025Z,33.2
2017-11-04T03:27:19.938Z,33.2
2017-11-04T03:28:18.920Z,33.2
2017-11-04T03:29:18.964Z,33.2
2017-11-04T03:30:19.143Z,33.2
2017-11-04T03:31:19.033Z,33.2
2017-11-04T03:32:19.023Z,33.2
2017-11-04T03:33:20.399Z,33.2
2017-11-04T03:34:19.337Z,33.2
2017-11-04T03:35:20.531Z,33.2
2017-11-04T03:36:20.346Z,33.2
2017-11-04T03:37:20.364Z,33.2
2017-11-04T03:38:20.610Z,33.2
2017-11-04T03:39:20.634Z,33.2
2017-11-04T03:40:19.393Z,33.2
2017-11-04T03:41:20.535Z,33.2
2017-11-04T03:42:20.838Z,33.2
2017-11-04T03:43:20.690Z,33.2
2017-11-04T03:44:20.735Z,33.2
2017-11-04T03:45:21.023Z,33.2
2017-11-04T03:46:19.786Z,33.2
2017-11-04T03:47:19.886Z,33.2
2017-11-04T03:48:21.248Z,33.2
2017-11-04T03:49:21.037Z,33.2
2017-11-04T03:50:20.191Z,33.2
2017-11-04T03:51:20.262Z,33.2
2017-11-04T03:52:20.100Z,33.2
2017-11-04T03:53:21.221Z,33.2
2017-11-04T03:54:20.165Z,33.2
2017-11-04T03:55:21.464Z,33.2
2017-11-04T03:56:21.506Z,33.2
2017-11-04T03:57:21.522Z,33.2
2017-11-04T03:58:21.327Z,33.2
2017-11-04T03:59:20.512Z,33.2
2017-11-04T04:00:20.608Z,33.2
2017-11-04T04:01:21.467Z,33.2
2017-11-04T04:02:20.685Z,33.2
2017-11-04T04:03:21.586Z,33.2
2017-11-04T04:04:20.799Z,33.2
2017-11-04T04:05:22.018Z,33.2
2017-11-04T04:06:20.759Z,33.2
2017-11-04T04:07:21.937Z,33.2
2017-11-04T04:08:21.989Z,33.2
2017-11-04T04:09:21.970Z,33.2
2017-11-04T04:10:20.963Z,33.2
2017-11-04T04:11:22.235Z,33.2
2017-11-04T04:12:22.303Z,33.2
2017-11-04T04:13:21.084Z,33.2
2017-11-04T04:14:21.349Z,33.2
2017-11-04T04:15:21.242Z,33.2
2017-11-04T04:16:21.547Z,33.2
2017-11-04T04:17:21.426Z,33.1
2017-11-04T04:18:22.782Z,33.2
2017-11-04T04:19:21.751Z,33.2
2017-11-04T04:20:22.656Z,33.2
2017-11-04T04:21:21.812Z,33.2
2017-11-04T04:22:21.796Z,33.2
2017-11-04T04:23:21.795Z,33.2
2017-11-04T04:24:21.671Z,33.2
2017-11-04T04:25:21.770Z,33.2
2017-11-04T04:26:21.853Z,33.2
2017-11-04T04:27:23.348Z,33.2
2017-11-04T04:28:22.203Z,33.2
2017-11-04T04:29:23.388Z,33.2
2017-11-04T04:30:23.163Z,33.2
2017-11-04T04:31:22.347Z,33.2
2017-11-04T04:32:23.232Z,33.2
2017-11-04T04:33:22.388Z,33.2
2017-11-04T04:34:22.238Z,33.2
2017-11-04T04:35:22.333Z,33.1
2017-11-04T04:36:22.561Z,33.1
2017-11-04T04:37:22.447Z,33.1
2017-11-04T04:38:23.574Z,33.1
2017-11-04T04:39:23.833Z,33.1
2017-11-04T04:40:23.708Z,33.1
2017-11-04T04:41:22.737Z,33.1
2017-11-04T04:42:22.950Z,33.1
2017-11-04T04:43:24.058Z,33.1
2017-11-04T04:44:23.925Z,33.1
2017-11-04T04:45:22.911Z,33.1
2017-11-04T04:46:22.943Z,33.1
2017-11-04T04:47:23.167Z,33.1
2017-11-04T04:48:24.090Z,33.1
2017-11-04T04:49:23.291Z,33.1
2017-11-04T04:50:24.443Z,33.1
2017-11-04T04:51:23.325Z,33.1
2017-11-04T04:52:24.304Z,33.1
2017-11-04T04:53:24.314Z,33.1
2017-11-04T04:54:24.584Z,33.1
2017-11-04T04:55:24.436Z,33.1
2017-11-04T04:56:24.544Z,33.1
2017-11-04T04:57:23.655Z,33.1
2017-11-04T04:58:24.617Z,33.1
2017-11-04T04:59:24.840Z,33.1
2017-11-04T05:00:24.673Z,33.1
2017-11-04T05:01:24.889Z,33.1
2017-11-04T05:02:23.882Z,33.1
2017-11-04T05:03:24.738Z,33.2
2017-11-04T05:04:25.018Z,33.2
2017-11-04T05:05:24.848Z,33.1
2017-11-04T05:06:23.980Z,33.2
2017-11-04T05:07:24.016Z,33.1
2017-11-04T05:08:23.937Z,33.2
2017-11-04T05:09:24.122Z,33.2
2017-11-04T05:10:25.056Z,33.2
2017-11-04T05:11:25.062Z,33.1
2017-11-04T05:12:24.194Z,33.1
2017-11-04T05:13:25.348Z,33.1
2017-11-04T05:14:24.108Z,33.1
2017-11-04T05:15:25.389Z,33.1
2017-11-04T05:16:24.164Z,33.1
2017-11-04T05:17:25.342Z,33.1
2017-11-04T05:18:25.614Z,33.1
2017-11-04T05:19:25.440Z,33.1
2017-11-04T05:20:25.465Z,33.1
2017-11-04T05:21:25.505Z,33.1
2017-11-04T05:22:25.776Z,33.1
2017-11-04T05:23:24.573Z,33.1
2017-11-04T05:24:25.730Z,33.1
2017-11-04T05:25:25.786Z,33.1
2017-11-04T05:26:26.285Z,33.1
2017-11-04T05:27:24.763Z,33.1
2017-11-04T05:28:26.093Z,33.1
2017-11-04T05:29:25.964Z,33.1
2017-11-04T05:30:24.921Z,33.1
2017-11-04T05:31:25.136Z,33.1
2017-11-04T05:32:26.098Z,33.1
2017-11-04T05:33:25.322Z,33.1
2017-11-04T05:34:25.344Z,33.1
2017-11-04T05:35:25.302Z,33.1
2017-11-04T05:36:26.422Z,33.1
2017-11-04T05:37:25.181Z,33.1
2017-11-04T05:38:25.462Z,33.1
2017-11-04T05:39:25.312Z,33.1
2017-11-04T05:40:25.340Z,33.1
2017-11-04T05:41:25.610Z,33.1
2017-11-04T05:42:25.456Z,33.1
2017-11-04T05:43:25.666Z,33.1
2017-11-04T05:44:26.852Z,33.1
2017-11-04T05:45:26.649Z,33.1
2017-11-04T05:46:26.880Z,33.1
2017-11-04T05:47:25.657Z,33.1
2017-11-04T05:48:27.079Z,33.1
2017-11-04T05:49:27.082Z,33.1
2017-11-04T05:50:25.973Z,33.1
2017-11-04T05:51:26.958Z,33.1
2017-11-04T05:52:25.951Z,33.1
2017-11-04T05:53:27.281Z,33.1
2017-11-04T05:54:26.031Z,33.1
2017-11-04T05:55:26.139Z,33.1
2017-11-04T05:56:26.396Z,33.1
2017-11-04T05:57:27.585Z,33.1
2017-11-04T05:58:26.544Z,33.1
2017-11-04T05:59:26.413Z,33.1
2017-11-04T06:00:27.506Z,33.1
2017-11-04T06:01:26.746Z,33.1
2017-11-04T06:02:27.550Z,33.1
2017-11-04T06:03:27.867Z,33.1
2017-11-04T06:04:26.880Z,33.1
2017-11-04T06:05:27.808Z,33.1
2017-11-04T06:06:26.987Z,33.1
2017-11-04T06:07:27.082Z,33.1
2017-11-04T06:08:28.236Z,33.1
2017-11-04T06:09:28.053Z,33.1
2017-11-04T06:10:26.992Z,33.1
2017-11-04T06:11:27.239Z,33.1
2017-11-04T06:12:28.163Z,33.1
2017-11-04T06:13:28.392Z,33.1
2017-11-04T06:14:27.350Z,33.1
2017-11-04T06:15:27.251Z,33.1
2017-11-04T06:16:27.264Z,33.1
2017-11-04T06:17:27.280Z,33.1
2017-11-04T06:18:27.457Z,33.1
2017-11-04T06:19:28.643Z,33.1
2017-11-04T06:20:28.735Z,33.1
2017-11-04T06:21:28.602Z,33.1
2017-11-04T06:22:27.749Z,33.1
2017-11-04T06:23:27.750Z,33.1
2017-11-04T06:24:28.865Z,33.1
2017-11-04T06:25:28.867Z,33.1
2017-11-04T06:26:27.621Z,33
2017-11-04T06:27:27.917Z,33.1
2017-11-04T06:28:29.096Z,33.1
2017-11-04T06:29:28.968Z,33.1
2017-11-04T06:30:29.286Z,33.1
2017-11-04T06:31:29.176Z,33.1
2017-11-04T06:32:28.273Z,33.1
2017-11-04T06:33:28.334Z,33.1
2017-11-04T06:34:29.384Z,33
2017-11-04T06:35:28.464Z,33.1
2017-11-04T06:36:28.517Z,33
2017-11-04T06:37:28.630Z,33.1
2017-11-04T06:38:28.650Z,33.1
2017-11-04T06:39:28.544Z,33.1
2017-11-04T06:40:29.837Z,33.1
2017-11-04T06:41:28.805Z,33.1
2017-11-04T06:42:29.926Z,33
2017-11-04T06:43:28.699Z,33
2017-11-04T06:44:28.787Z,33
2017-11-04T06:45:29.871Z,33
2017-11-04T06:46:29.904Z,33
2017-11-04T06:47:29.067Z,33
2017-11-04T06:48:30.202Z,33
2017-11-04T06:49:29.145Z,33
2017-11-04T06:50:29.042Z,33
2017-11-04T06:51:30.375Z,33
2017-11-04T06:52:29.440Z,33
2017-11-04T06:53:29.266Z,33
2017-11-04T06:54:30.355Z,33
2017-11-04T06:55:29.275Z,33
2017-11-04T06:56:30.459Z,33
2017-11-04T06:57:29.634Z,33
2017-11-04T06:58:30.736Z,33
2017-11-04T06:59:29.752Z,33
2017-11-04T07:00:29.641Z,33
2017-11-04T07:01:30.787Z,33
2017-11-04T07:02:30.815Z,33
2017-11-04T07:03:30.839Z,33
2017-11-04T07:04:29.815Z,33
2017-11-04T07:05:30.908Z,33
2017-11-04T07:06:30.902Z,33
2017-11-04T07:07:29.862Z,32.9
2017-11-04T07:08:30.969Z,32.9
2017-11-04T07:09:30.999Z,32.9
2017-11-04T07:10:29.978Z,32.9
2017-11-04T07:11:31.346Z,32.9
2017-11-04T07:12:30.334Z,32.9
2017-11-04T07:13:31.406Z,32.9
2017-11-04T07:14:31.227Z,32.9
2017-11-04T07:15:30.442Z,32.8
2017-11-04T07:16:30.547Z,32.8
2017-11-04T07:17:31.508Z,32.8
2017-11-04T07:18:31.772Z,32.8
2017-11-04T07:19:31.851Z,32.8
2017-11-04T07:20:31.632Z,32.8
2017-11-04T07:21:30.843Z,32.8
2017-11-04T07:22:31.897Z,32.8
2017-11-04T07:23:31.982Z,32.8
2017-11-04T07:24:30.708Z,32.8
2017-11-04T07:25:30.779Z,32.8
2017-11-04T07:26:31.090Z,32.7
2017-11-04T07:27:31.972Z,32.7
2017-11-04T07:28:32.223Z,32.7
2017-11-04T07:29:32.063Z,32.7
2017-11-04T07:30:31.056Z,32.7
2017-11-04T07:31:32.402Z,32.7
2017-11-04T07:32:31.137Z,32.7
2017-11-04T07:33:31.169Z,32.7
2017-11-04T07:34:31.495Z,32.7
2017-11-04T07:35:31.528Z,32.6
2017-11-04T07:36:32.471Z,32.6
2017-11-04T07:37:31.618Z,32.6
2017-11-04T07:38:32.841Z,32.6
2017-11-04T07:39:32.591Z,32.6
2017-11-04T07:40:31.550Z,32.6
2017-11-04T07:41:31.620Z,32.6
2017-11-04T07:42:31.695Z,32.6
2017-11-04T07:43:33.014Z,32.6
2017-11-04T07:44:32.849Z,32.6
2017-11-04T07:45:31.900Z,32.6
2017-11-04T07:46:32.157Z,32.6
2017-11-04T07:47:33.266Z,32.6
2017-11-04T07:48:33.262Z,32.6
2017-11-04T07:49:32.199Z,32.5
2017-11-04T07:50:32.058Z,32.5
2017-11-04T07:51:32.416Z,32.5
2017-11-04T07:52:32.395Z,32.5
2017-11-04T07:53:33.374Z,32.5
2017-11-04T07:54:32.562Z,32.5
2017-11-04T07:55:33.774Z,32.5
2017-11-04T07:56:32.646Z,32.5
2017-11-04T07:57:33.626Z,32.5
2017-11-04T07:58:33.868Z,32.4
2017-11-04T07:59:33.960Z,32.4
2017-11-04T08:00:32.908Z,32.4
2017-11-04T08:01:33.005Z,32.4
2017-11-04T08:02:34.138Z,32.4
2017-11-04T08:03:32.924Z,32.3
2017-11-04T08:04:34.325Z,32.3
2017-11-04T08:05:33.071Z,32.3
2017-11-04T08:06:33.385Z,32.2
2017-11-04T08:07:33.186Z,32.2
2017-11-04T08:08:33.483Z,32.2
2017-11-04T08:09:33.504Z,32.2
2017-11-04T08:10:34.664Z,32.2
2017-11-04T08:11:34.492Z,32.2
2017-11-04T08:12:33.651Z,32.1
2017-11-04T08:13:34.520Z,32.1
2017-11-04T08:14:34.813Z,32.1
2017-11-04T08:15:34.868Z,32.1
2017-11-04T08:16:34.724Z,32
2017-11-04T08:17:34.793Z,32
2017-11-04T08:18:35.067Z,32
2017-11-04T08:19:35.156Z,31.9
2017-11-04T08:20:35.180Z,31.9
2017-11-04T08:21:35.220Z,31.9
2017-11-04T08:22:34.060Z,31.8
2017-11-04T08:23:35.030Z,31.8
2017-11-04T08:24:35.149Z,31.7
2017-11-04T08:25:34.289Z,31.7
2017-11-04T08:26:35.473Z,31.6
2017-11-04T08:27:34.182Z,31.6
2017-11-04T08:28:34.458Z,31.5
2017-11-04T08:29:34.336Z,31.4
2017-11-04T08:30:34.417Z,31.4
2017-11-04T08:31:35.728Z,31.3
2017-11-04T08:32:35.804Z,31.2
2017-11-04T08:33:34.760Z,31.2
2017-11-04T08:34:35.658Z,31.1
2017-11-04T08:35:34.731Z,31.1
2017-11-04T08:36:34.701Z,31.1
2017-11-04T08:37:34.964Z,31.1
2017-11-04T08:38:35.874Z,31
2017-11-04T08:39:35.048Z,31
2017-11-04T08:40:35.104Z,31
2017-11-04T08:41:35.161Z,30.9
2017-11-04T08:42:35.053Z,30.9
2017-11-04T08:43:35.250Z,30.9
2017-11-04T08:44:35.327Z,30.8
2017-11-04T08:45:36.491Z,30.8
2017-11-04T08:46:36.491Z,30.7
2017-11-04T08:47:35.264Z,30.7
2017-11-04T08:48:36.432Z,30.7
2017-11-04T08:49:36.457Z,30.6
2017-11-04T08:50:36.486Z,30.6
2017-11-04T08:51:36.712Z,30.5
2017-11-04T08:52:35.650Z,30.6
2017-11-04T08:53:36.564Z,30.6
2017-11-04T08:54:35.612Z,30.7
2017-11-04T08:55:35.707Z,30.7
2017-11-04T08:56:35.906Z,30.7
2017-11-04T08:57:36.898Z,30.7
2017-11-04T08:58:37.138Z,30.8
2017-11-04T08:59:35.913Z,30.8
2017-11-04T09:00:35.888Z,30.9
2017-11-04T09:01:36.073Z,30.9
2017-11-04T09:02:37.241Z,30.9
2017-11-04T09:03:36.208Z,31
2017-11-04T09:04:36.112Z,31
2017-11-04T09:05:36.163Z,31
2017-11-04T09:06:36.214Z,31.1
2017-11-04T09:07:37.484Z,31.1
2017-11-04T09:08:36.410Z,31.1
2017-11-04T09:09:37.414Z,31.2
2017-11-04T09:10:36.303Z,31.2
2017-11-04T09:11:36.563Z,31.2
2017-11-04T09:12:36.454Z,31.2
2017-11-04T09:13:37.821Z,31.3
2017-11-04T09:14:37.669Z,31.3
2017-11-04T09:15:36.657Z,31.3
2017-11-04T09:16:37.775Z,31.3
2017-11-04T09:17:37.967Z,31.3
2017-11-04T09:18:37.880Z,31.4
2017-11-04T09:19:38.121Z,31.4
2017-11-04T09:20:36.898Z,31.4
2017-11-04T09:21:36.928Z,31.4
2017-11-04T09:22:37.139Z,31.4
2017-11-04T09:23:38.105Z,31.5
2017-11-04T09:24:37.113Z,31.5
2017-11-04T09:25:37.125Z,31.5
2017-11-04T09:26:38.488Z,31.5
2017-11-04T09:27:38.275Z,31.5
2017-11-04T09:28:37.305Z,31.5
2017-11-04T09:29:38.371Z,31.5
2017-11-04T09:30:37.368Z,31.5
2017-11-04T09:31:38.748Z,31.5
2017-11-04T09:32:38.584Z,31.5
2017-11-04T09:33:38.608Z,31.6
2017-11-04T09:34:37.756Z,31.6
2017-11-04T09:35:38.730Z,31.6
2017-11-04T09:36:38.767Z,31.6
2017-11-04T09:37:38.851Z,31.6
2017-11-04T09:38:39.104Z,31.6
2017-11-04T09:39:39.113Z,31.6
2017-11-04T09:40:37.848Z,31.6
2017-11-04T09:41:38.958Z,31.6
2017-11-04T09:42:38.145Z,31.6
2017-11-04T09:43:39.049Z,31.6
2017-11-04T09:44:39.336Z,31.7
2017-11-04T09:45:38.113Z,31.7
2017-11-04T09:46:39.170Z,31.7
2017-11-04T09:47:39.420Z,31.7
2017-11-04T09:48:38.179Z,31.7
2017-11-04T09:49:38.190Z,31.7
2017-11-04T09:50:38.315Z,31.7
2017-11-04T09:51:39.461Z,31.7
2017-11-04T09:52:39.480Z,31.7
2017-11-04T09:53:39.476Z,31.7
2017-11-04T09:54:38.596Z,31.7
2017-11-04T09:55:38.660Z,31.7
2017-11-04T09:56:38.497Z,31.7
2017-11-04T09:57:39.575Z,31.7
2017-11-04T09:58:38.543Z,31.7
2017-11-04T09:59:38.873Z,31.7
2017-11-04T10:00:38.881Z,31.7
2017-11-04T10:01:38.993Z,31.7
2017-11-04T10:02:39.944Z,31.7
2017-11-04T10:03:39.934Z,31.7
2017-11-04T10:04:39.100Z,31.7
2017-11-04T10:05:40.061Z,31.7
2017-11-04T10:06:39.015Z,31.7
2017-11-04T10:07:39.085Z,31.7
2017-11-04T10:08:40.201Z,31.8
2017-11-04T10:09:39.214Z,31.8
2017-11-04T10:10:39.232Z,31.8
2017-11-04T10:11:39.476Z,31.8
2017-11-04T10:12:40.641Z,31.8
2017-11-04T10:13:39.560Z,31.8
2017-11-04T10:14:40.513Z,31.8
2017-11-04T10:15:40.827Z,31.8
2017-11-04T10:16:40.833Z,31.8
2017-11-04T10:17:40.654Z,31.8
2017-11-04T10:18:40.972Z,31.9
2017-11-04T10:19:39.918Z,31.9
2017-11-04T10:20:41.045Z,31.9
2017-11-04T10:21:39.847Z,31.9
2017-11-04T10:22:40.961Z,31.8
2017-11-04T10:23:40.104Z,31.9
2017-11-04T10:24:41.159Z,31.9
2017-11-04T10:25:41.061Z,31.9
2017-11-04T10:26:41.115Z,31.9
2017-11-04T10:27:40.302Z,31.9
2017-11-04T10:28:41.436Z,31.9
2017-11-04T10:29:41.408Z,31.9
2017-11-04T10:30:41.255Z,31.9
2017-11-04T10:31:40.441Z,31.9
2017-11-04T10:32:40.352Z,31.9
2017-11-04T10:33:41.432Z,31.9
2017-11-04T10:34:41.691Z,31.9
2017-11-04T10:35:46.133Z,31.9
2017-11-04T10:36:40.703Z,31.9
2017-11-04T10:37:40.576Z,31.9
2017-11-04T10:38:41.855Z,31.9
2017-11-04T10:39:41.613Z,31.9
2017-11-04T10:40:40.689Z,31.9
2017-11-04T10:41:40.923Z,31.9
2017-11-04T10:42:41.886Z,31.9
2017-11-04T10:43:42.190Z,31.9
2017-11-04T10:44:41.125Z,31.9
2017-11-04T10:45:41.212Z,31.9
2017-11-04T10:46:42.151Z,31.9
2017-11-04T10:47:41.214Z,31.9
2017-11-04T10:48:42.519Z,31.9
2017-11-04T10:49:42.387Z,31.9
2017-11-04T10:50:41.483Z,31.9
2017-11-04T10:51:41.573Z,31.9
2017-11-04T10:52:41.426Z,31.9
2017-11-04T10:53:41.462Z,31.9
2017-11-04T10:54:42.643Z,31.9
2017-11-04T10:55:41.674Z,31.9
2017-11-04T10:56:42.730Z,31.9
2017-11-04T10:57:41.973Z,31.9
2017-11-04T10:58:43.174Z,31.9
2017-11-04T10:59:42.155Z,31.9
2017-11-04T11:00:43.256Z,31.9
2017-11-04T11:01:43.129Z,31.9
2017-11-04T11:02:42.256Z,31.9
2017-11-04T11:03:43.135Z,31.9
2017-11-04T11:04:43.348Z,31.9
2017-11-04T11:05:42.102Z,31.9
2017-11-04T11:06:42.136Z,31.9
2017-11-04T11:07:43.530Z,31.9
2017-11-04T11:08:42.317Z,31.9
2017-11-04T11:09:42.390Z,31.9
2017-11-04T11:10:42.653Z,31.9
2017-11-04T11:11:43.578Z,31.9
2017-11-04T11:12:43.873Z,31.9
2017-11-04T11:13:43.900Z,31.9
2017-11-04T11:14:43.790Z,31.9
2017-11-04T11:15:44.016Z,31.9
2017-11-04T11:16:44.048Z,31.9
2017-11-04T11:17:44.174Z,31.9
2017-11-04T11:18:43.911Z,31.9
2017-11-04T11:19:44.173Z,32
2017-11-04T11:20:44.277Z,31.9
2017-11-04T11:21:44.297Z,31.9
2017-11-04T11:22:43.202Z,31.9
2017-11-04T11:23:43.046Z,31.9
2017-11-04T11:24:44.342Z,32
2017-11-04T11:25:44.468Z,32
2017-11-04T11:26:43.350Z,32
2017-11-04T11:27:43.253Z,32
2017-11-04T11:28:43.494Z,32
2017-11-04T11:29:43.612Z,32
2017-11-04T11:30:43.430Z,32
2017-11-04T11:31:43.632Z,31.9
2017-11-04T11:32:44.785Z,31.9
2017-11-04T11:33:43.697Z,31.9
2017-11-04T11:34:44.651Z,31.9
2017-11-04T11:35:43.780Z,32
2017-11-04T11:36:43.699Z,32
2017-11-04T11:37:44.842Z,32
2017-11-04T11:38:45.105Z,32
2017-11-04T11:39:44.996Z,32
2017-11-04T11:40:44.104Z,32
2017-11-04T11:41:45.204Z,32
2017-11-04T11:42:44.259Z,32
2017-11-04T11:43:45.098Z,32
2017-11-04T11:44:45.142Z,32
2017-11-04T11:45:44.088Z,32
2017-11-04T11:46:45.421Z,32
2017-11-04T11:47:44.351Z,32
2017-11-04T11:48:44.424Z,32
2017-11-04T11:49:45.242Z,32
2017-11-04T11:50:45.537Z,32
2017-11-04T11:51:44.312Z,32
2017-11-04T11:52:45.629Z,32
2017-11-04T11:53:45.691Z,32
2017-11-04T11:54:45.783Z,32
2017-11-04T11:55:44.711Z,32
2017-11-04T11:56:45.834Z,32
2017-11-04T11:57:45.696Z,32
2017-11-04T11:58:44.615Z,32
2017-11-04T11:59:45.961Z,32
2017-11-04T12:00:44.709Z,32
2017-11-04T12:01:45.871Z,32
2017-11-04T12:02:46.175Z,32
2017-11-04T12:03:46.022Z,32
2017-11-04T12:04:44.939Z,32
2017-11-04T12:05:46.055Z,32
2017-11-04T12:06:46.087Z,32
2017-11-04T12:07:45.150Z,32
2017-11-04T12:08:46.341Z,32
2017-11-04T12:09:45.106Z,32
2017-11-04T12:10:46.191Z,32
2017-11-04T12:11:45.342Z,32
2017-11-04T12:12:45.432Z,32
2017-11-04T12:13:46.638Z,32
2017-11-04T12:14:46.673Z,32
2017-11-04T12:15:46.528Z,32.1
2017-11-04T12:16:45.488Z,32
2017-11-04T12:17:46.663Z,32
2017-11-04T12:18:46.683Z,32
2017-11-04T12:19:46.972Z,32
2017-11-04T12:20:45.741Z,32
2017-11-04T12:21:45.743Z,32
2017-11-04T12:22:46.816Z,32
2017-11-04T12:23:45.987Z,32
2017-11-04T12:24:46.039Z,32
2017-11-04T12:25:47.167Z,32
2017-11-04T12:26:47.026Z,32
2017-11-04T12:27:46.003Z,32
2017-11-04T12:28:46.018Z,32
2017-11-04T12:29:47.114Z,32
2017-11-04T12:30:47.167Z,32
2017-11-04T12:31:47.408Z,32
2017-11-04T12:32:46.366Z,32
2017-11-04T12:33:46.211Z,32
2017-11-04T12:34:47.321Z,32
2017-11-04T12:35:46.507Z,32
2017-11-04T12:36:46.348Z,32
2017-11-04T12:37:47.431Z,32
2017-11-04T12:38:47.561Z,32
2017-11-04T12:39:46.737Z,32
2017-11-04T12:40:46.567Z,32
2017-11-04T12:41:46.768Z,31.9
2017-11-04T12:42:47.891Z,31.9
2017-11-04T12:43:46.851Z,31.9
2017-11-04T12:44:46.880Z,31.9
2017-11-04T12:45:46.916Z,31.9
2017-11-04T12:46:46.766Z,31.9
2017-11-04T12:47:46.814Z,31.9
2017-11-04T12:48:47.889Z,31.9
2017-11-04T12:49:47.560Z,31.9
2017-11-04T12:50:47.133Z,31.9
2017-11-04T12:51:47.070Z,31.9
2017-11-04T12:52:46.967Z,31.9
2017-11-04T12:53:47.205Z,31.9
2017-11-04T12:54:47.225Z,31.9
2017-11-04T12:55:47.117Z,31.9
2017-11-04T12:56:48.233Z,31.9
2017-11-04T12:57:48.153Z,31.9
2017-11-04T12:58:47.416Z,31.9
2017-11-04T12:59:48.526Z,31.9
2017-11-04T13:00:47.479Z,31.9
2017-11-04T13:01:48.356Z,31.9
2017-11-04T13:02:47.311Z,31.9
2017-11-04T13:03:47.310Z,31.9
2017-11-04T13:04:48.417Z,31.8
2017-11-04T13:05:47.453Z,31.8
2017-11-04T13:06:47.689Z,31.8
2017-11-04T13:07:47.595Z,31.8
2017-11-04T13:08:48.669Z,31.8
2017-11-04T13:09:48.735Z,31.8
2017-11-04T13:10:47.737Z,31.8
2017-11-04T13:11:49.159Z,31.8
2017-11-04T13:12:49.196Z,31.8
2017-11-04T13:13:47.998Z,31.8
2017-11-04T13:14:49.309Z,31.8
2017-11-04T13:15:48.201Z,31.8
2017-11-04T13:16:48.118Z,31.8
2017-11-04T13:17:49.181Z,31.8
2017-11-04T13:18:48.363Z,31.8
2017-11-04T13:19:48.399Z,31.8
2017-11-04T13:20:49.494Z,31.8
2017-11-04T13:21:49.567Z,31.8
2017-11-04T13:22:48.515Z,31.8
2017-11-04T13:23:49.475Z,31.8
2017-11-04T13:24:48.654Z,31.8
2017-11-04T13:25:49.720Z,31.8